world map with CCF marked

CCF - Airport

This information may not be accurate or current and is not valid for navigation or flight planning. No warranty of fitness for any purpose is made or implied.

flag of Languedoc-Roussillonflag of France

Donate via PayPal

Additional information is available on the NEW Great Circle Mapper

Location
City:  Carcassonne, Languedoc-Roussillon, France
Name:Salvaza
ICAO / IATA:LFMK / CCF

Details
Type:Airport (Aerodrome, Airfield)
Use:Public/Civil
Latitude:43°12'57"N (43.215817)
Longitude:2°18'31"E (2.308544)
Elevation:433 ft (132 m)
Runways:2
Longest:6726 × 148 ft (2050 × 45 m)

Time
Timezone:UTC+1 (DST+4)
Local Time:

Weather
METAR:LFMK  210030Z AUTO 27009KT 9999 FEW013/// SCT042/// BKN062/// ///TCU 07/05 Q1016
TAF:LFMK  201800Z 2018/2115 CNL

Related Locations
Nearby:
Farthest:CHT: 12362 mi / 19895 km
Waitangi [Tuuta], CIT, NZ

Find:

   beyond  
but within

Other Information
Maps:
Sources:

  


 


Great Circle Mapper   Great Circle Mapper
Great Circle Mapper FAQ   Great Circle Mapper FAQ
  Karl's Home Page
KLSē   KLSē Home
   GC on Facebook
Airlines of the World   Airlines of the World
Donate via PayPal


Copyright © 2004-2019, Karl L. Swartz. All rights reserved.
All trademarks mentioned herein belong to their respective owners.

Please see credits for attribution and copyright information.

Karl Swartz <karl@kls2.com>
  Powered by FreeBSD
Valid HTML 4.01!
Labeled with ICRA
hCard Microformat
Geo Microformat